createdAt,value
2018-06-29T00:00:41.546Z,16.72
2018-06-29T00:03:09.760Z,16.75
2018-06-29T00:05:37.939Z,16.78
2018-06-29T00:08:06.426Z,16.76
2018-06-29T00:10:34.558Z,16.76
2018-06-29T00:13:02.790Z,16.75
2018-06-29T00:15:30.963Z,16.72
2018-06-29T00:17:59.294Z,16.66
2018-06-29T00:20:27.505Z,16.70
2018-06-29T00:22:55.734Z,16.71
2018-06-29T00:25:23.895Z,16.64
2018-06-29T00:27:52.090Z,16.69
2018-06-29T00:30:20.266Z,16.68
2018-06-29T00:32:48.433Z,16.70
2018-06-29T00:35:16.599Z,16.76
2018-06-29T00:37:44.778Z,16.78
2018-06-29T00:40:13.244Z,16.88
2018-06-29T00:42:41.258Z,16.81
2018-06-29T00:45:09.861Z,16.30
2018-06-29T00:47:38.025Z,16.76
2018-06-29T00:50:06.263Z,16.71
2018-06-29T00:52:34.563Z,16.64
2018-06-29T00:55:02.906Z,16.68
2018-06-29T00:57:31.062Z,16.62
2018-06-29T00:59:59.631Z,16.72
2018-06-29T01:02:27.970Z,16.62
2018-06-29T01:04:56.218Z,16.58
2018-06-29T01:07:24.292Z,16.61
2018-06-29T01:09:52.746Z,16.61
2018-06-29T01:12:20.943Z,16.58
2018-06-29T01:14:49.085Z,16.67
2018-06-29T01:17:17.294Z,16.79
2018-06-29T01:19:45.459Z,16.80
2018-06-29T01:22:14.625Z,17.01
2018-06-29T01:24:42.845Z,17.10
2018-06-29T01:27:11.042Z,17.19
2018-06-29T01:29:39.290Z,17.25
2018-06-29T01:32:07.677Z,17.10
2018-06-29T01:34:35.876Z,17.10
2018-06-29T01:37:04.129Z,17.03
2018-06-29T01:39:32.272Z,16.82
2018-06-29T01:42:00.784Z,16.67
2018-06-29T01:44:29.186Z,16.65
2018-06-29T01:46:57.393Z,16.67
2018-06-29T01:49:25.618Z,16.71
2018-06-29T01:51:54.405Z,16.65
2018-06-29T01:54:22.569Z,16.56
2018-06-29T01:56:50.921Z,16.55
2018-06-29T01:59:19.375Z,16.55
2018-06-29T02:01:47.746Z,16.58
2018-06-29T02:04:16.405Z,16.48
2018-06-29T02:06:44.616Z,16.61
2018-06-29T02:09:12.769Z,16.63
2018-06-29T02:11:40.950Z,16.61
2018-06-29T02:14:09.136Z,16.48
2018-06-29T02:16:37.378Z,16.50
2018-06-29T02:19:05.706Z,16.53
2018-06-29T02:21:33.894Z,16.47
2018-06-29T02:24:02.034Z,16.49
2018-06-29T02:26:30.208Z,16.47
2018-06-29T02:28:58.340Z,16.43
2018-06-29T02:31:26.507Z,16.39
2018-06-29T02:33:54.710Z,16.42
2018-06-29T02:36:22.804Z,16.37
2018-06-29T02:38:50.974Z,16.35
2018-06-29T02:41:19.716Z,16.37
2018-06-29T02:43:47.828Z,16.48
2018-06-29T02:46:15.987Z,16.39
2018-06-29T02:48:44.109Z,16.38
2018-06-29T02:51:12.246Z,16.32
2018-06-29T02:53:40.398Z,16.28
2018-06-29T02:56:08.636Z,16.25
2018-06-29T02:58:36.705Z,16.31
2018-06-29T03:01:04.979Z,16.34
2018-06-29T03:03:33.205Z,16.32
2018-06-29T03:06:01.409Z,16.32
2018-06-29T03:08:29.594Z,16.29
2018-06-29T03:10:57.732Z,16.27
2018-06-29T03:13:25.869Z,16.25
2018-06-29T03:15:54.020Z,16.24
2018-06-29T03:18:22.398Z,16.21
2018-06-29T03:20:50.543Z,16.24
2018-06-29T03:23:18.620Z,16.31
2018-06-29T03:25:46.737Z,16.27
2018-06-29T03:28:14.917Z,16.22
2018-06-29T03:30:43.146Z,16.23
2018-06-29T03:33:11.451Z,16.25
2018-06-29T03:35:39.594Z,16.30
2018-06-29T03:38:07.812Z,16.30
2018-06-29T03:40:36.158Z,16.41
2018-06-29T03:43:04.267Z,16.47
2018-06-29T03:45:32.429Z,16.46
2018-06-29T03:48:00.514Z,16.53
2018-06-29T03:50:28.686Z,16.46
2018-06-29T03:52:56.864Z,16.58
2018-06-29T03:55:25.433Z,16.60
2018-06-29T03:57:53.634Z,16.69
2018-06-29T04:00:21.830Z,16.81
2018-06-29T04:02:50.352Z,16.71
2018-06-29T04:05:18.741Z,16.83
2018-06-29T04:07:46.982Z,16.84
2018-06-29T04:10:15.491Z,16.60
2018-06-29T04:12:43.789Z,16.81
2018-06-29T04:15:11.941Z,16.70
2018-06-29T04:17:40.179Z,16.77
2018-06-29T04:20:08.393Z,16.94
2018-06-29T04:22:36.667Z,16.80
2018-06-29T04:25:05.786Z,16.80
2018-06-29T04:27:37.419Z,16.95
2018-06-29T04:30:05.747Z,17.05
2018-06-29T04:32:34.166Z,16.93
2018-06-29T04:35:02.323Z,16.98
2018-06-29T04:37:30.625Z,17.01
2018-06-29T04:39:58.849Z,17.15
2018-06-29T04:42:27.067Z,17.10
2018-06-29T04:44:55.327Z,17.13
2018-06-29T04:47:23.528Z,16.96
2018-06-29T04:49:52.218Z,16.86
2018-06-29T04:52:20.659Z,16.69
2018-06-29T04:54:48.958Z,16.88
2018-06-29T04:57:17.229Z,16.87
2018-06-29T04:59:45.537Z,16.72
2018-06-29T05:02:13.872Z,16.75
2018-06-29T05:04:42.157Z,16.80
2018-06-29T05:07:10.253Z,16.83
2018-06-29T05:09:38.511Z,16.88
2018-06-29T05:12:06.728Z,17.02
2018-06-29T05:14:34.926Z,17.01
2018-06-29T05:17:03.210Z,17.05
2018-06-29T05:19:31.910Z,17.25
2018-06-29T05:22:00.286Z,16.94
2018-06-29T05:24:29.071Z,16.74
2018-06-29T05:26:57.488Z,16.69
2018-06-29T05:29:25.758Z,16.65
2018-06-29T05:31:54.018Z,16.57
2018-06-29T05:34:23.270Z,16.60
2018-06-29T05:36:51.562Z,16.59
2018-06-29T05:39:19.887Z,16.70
2018-06-29T05:41:48.194Z,16.66
2018-06-29T05:44:16.430Z,16.66
2018-06-29T05:46:44.807Z,16.68
2018-06-29T05:49:13.038Z,17.05
2018-06-29T05:51:41.422Z,17.12
2018-06-29T05:54:09.667Z,17.16
2018-06-29T05:56:37.877Z,17.62
2018-06-29T05:59:06.295Z,17.80
2018-06-29T06:01:35.054Z,17.96
2018-06-29T06:04:03.499Z,18.17
2018-06-29T06:06:31.842Z,18.16
2018-06-29T06:09:00.234Z,18.35
2018-06-29T06:11:28.395Z,17.91
2018-06-29T06:13:56.617Z,17.63
2018-06-29T06:16:25.088Z,17.47
2018-06-29T06:20:06.024Z,17.21
2018-06-29T06:22:34.594Z,17.24
2018-06-29T06:25:03.124Z,17.24
2018-06-29T06:27:31.515Z,17.37
2018-06-29T06:30:00.008Z,17.47
2018-06-29T06:32:28.286Z,17.66
2018-06-29T06:34:56.692Z,17.62
2018-06-29T06:37:25.043Z,17.54
2018-06-29T06:39:53.445Z,17.48
2018-06-29T06:42:21.893Z,17.37
2018-06-29T06:44:50.135Z,17.60
2018-06-29T06:47:18.338Z,17.15
2018-06-29T06:49:46.665Z,17.20
2018-06-29T06:52:15.092Z,17.17
2018-06-29T06:54:43.575Z,17.15
2018-06-29T06:57:11.899Z,17.18
2018-06-29T06:59:40.389Z,17.57
2018-06-29T07:02:08.726Z,17.56
2018-06-29T07:04:37.974Z,17.68
2018-06-29T07:07:06.338Z,17.65
2018-06-29T07:09:34.639Z,17.73
2018-06-29T07:12:03.155Z,17.60
2018-06-29T07:14:31.484Z,17.53
2018-06-29T07:16:59.927Z,17.55
2018-06-29T07:19:28.818Z,17.53
2018-06-29T07:21:57.036Z,17.45
2018-06-29T07:24:25.416Z,17.37
2018-06-29T07:26:53.696Z,17.53
2018-06-29T07:29:22.038Z,17.41
2018-06-29T07:31:50.293Z,17.44
2018-06-29T07:34:18.953Z,17.44
2018-06-29T07:36:47.738Z,17.66
2018-06-29T07:39:16.276Z,17.77
2018-06-29T07:41:45.072Z,17.72
2018-06-29T07:44:13.433Z,17.63
2018-06-29T07:46:41.986Z,17.45
2018-06-29T07:49:10.261Z,17.99
2018-06-29T07:51:38.507Z,17.71
2018-06-29T07:54:06.872Z,17.40
2018-06-29T07:56:35.107Z,17.38
2018-06-29T07:59:03.447Z,17.42
2018-06-29T08:01:31.807Z,17.78
2018-06-29T08:04:00.222Z,18.26
2018-06-29T08:06:28.387Z,18.54
2018-06-29T08:08:56.958Z,19.04
2018-06-29T08:11:25.469Z,19.05
2018-06-29T08:13:54.199Z,18.94
2018-06-29T08:16:22.994Z,19.25
2018-06-29T08:18:51.327Z,19.51
2018-06-29T08:21:19.574Z,19.40
2018-06-29T08:23:48.259Z,19.88
2018-06-29T08:26:25.030Z,19.74
2018-06-29T08:28:53.794Z,19.50
2018-06-29T08:31:21.929Z,19.90
2018-06-29T08:33:50.160Z,20.08
2018-06-29T08:36:18.396Z,20.07
2018-06-29T08:38:46.695Z,20.30
2018-06-29T08:41:15.027Z,20.62
2018-06-29T08:43:43.634Z,20.39
2018-06-29T08:46:11.977Z,20.23
2018-06-29T08:48:40.206Z,20.58
2018-06-29T08:51:08.640Z,21.25
2018-06-29T08:53:37.150Z,21.10
2018-06-29T08:56:05.407Z,20.59
2018-06-29T08:58:33.892Z,20.52
2018-06-29T09:01:02.528Z,21.22
2018-06-29T09:03:31.489Z,22.05
2018-06-29T09:05:59.826Z,21.32
2018-06-29T09:08:29.097Z,21.54
2018-06-29T09:10:57.595Z,21.99
2018-06-29T09:13:25.835Z,21.02
2018-06-29T09:15:54.219Z,21.03
2018-06-29T09:18:22.475Z,21.85
2018-06-29T09:20:50.982Z,22.35
2018-06-29T09:23:19.462Z,23.05
2018-06-29T09:25:47.858Z,23.29
2018-06-29T09:28:16.376Z,23.50
2018-06-29T09:30:44.647Z,23.51
2018-06-29T09:33:12.898Z,22.42
2018-06-29T09:35:41.330Z,23.21
2018-06-29T09:38:09.863Z,23.05
2018-06-29T09:40:38.185Z,23.27
2018-06-29T09:43:06.406Z,24.21
2018-06-29T09:45:34.687Z,24.20
2018-06-29T09:48:03.193Z,23.41
2018-06-29T09:50:31.511Z,23.96
2018-06-29T09:53:00.140Z,24.68
2018-06-29T09:55:28.553Z,24.42
2018-06-29T09:57:57.625Z,24.04
2018-06-29T10:00:30.092Z,24.33
2018-06-29T10:02:59.152Z,24.37
2018-06-29T10:05:27.956Z,24.59
2018-06-29T10:07:56.865Z,25.12
2018-06-29T10:10:25.228Z,25.33
2018-06-29T10:12:53.500Z,24.72
2018-06-29T10:15:21.918Z,24.40
2018-06-29T10:17:50.204Z,24.91
2018-06-29T10:20:18.615Z,23.95
2018-06-29T10:22:46.811Z,24.66
2018-06-29T10:25:15.133Z,25.23
2018-06-29T10:27:43.563Z,24.88
2018-06-29T10:30:11.815Z,25.17
2018-06-29T10:32:40.329Z,25.32
2018-06-29T10:35:10.802Z,24.78
2018-06-29T10:37:39.280Z,25.34
2018-06-29T10:40:07.593Z,25.78
2018-06-29T10:42:35.972Z,25.79
2018-06-29T10:45:05.217Z,25.64
2018-06-29T10:47:33.566Z,25.17
2018-06-29T10:50:02.218Z,25.32
2018-06-29T10:52:30.714Z,25.94
2018-06-29T10:54:59.438Z,25.47
2018-06-29T10:57:27.731Z,25.26
2018-06-29T10:59:56.096Z,26.27
2018-06-29T11:02:25.394Z,26.11
2018-06-29T11:04:54.201Z,26.95
2018-06-29T11:07:22.705Z,27.02
2018-06-29T11:09:51.384Z,27.15
2018-06-29T11:12:19.772Z,25.88
2018-06-29T11:14:48.435Z,25.18
2018-06-29T11:17:16.742Z,25.32
2018-06-29T11:19:45.091Z,26.05
2018-06-29T11:22:13.433Z,25.52
2018-06-29T11:24:41.753Z,26.77
2018-06-29T11:27:10.122Z,27.28
2018-06-29T11:29:38.379Z,26.12
2018-06-29T11:32:06.944Z,25.88
2018-06-29T11:34:35.255Z,26.51
2018-06-29T11:37:04.023Z,27.45
2018-06-29T11:39:32.293Z,27.90
2018-06-29T11:42:05.382Z,27.08
2018-06-29T11:44:33.602Z,27.88
2018-06-29T11:47:02.137Z,27.90
2018-06-29T11:49:30.432Z,27.32
2018-06-29T11:51:58.738Z,26.53
2018-06-29T11:54:27.996Z,26.06
2018-06-29T11:56:56.778Z,26.84
2018-06-29T11:59:26.171Z,26.84
2018-06-29T12:01:54.844Z,26.29
2018-06-29T12:04:23.160Z,26.08
2018-06-29T12:06:51.501Z,26.44
2018-06-29T12:09:19.801Z,26.70
2018-06-29T12:11:48.224Z,26.10
2018-06-29T12:14:17.697Z,26.50
2018-06-29T12:16:46.480Z,25.74
2018-06-29T12:19:14.820Z,25.55
2018-06-29T12:21:43.140Z,25.90
2018-06-29T12:24:11.677Z,25.55
2018-06-29T12:26:39.905Z,26.72
2018-06-29T12:29:08.659Z,26.77
2018-06-29T12:31:41.150Z,26.86
2018-06-29T12:34:09.776Z,26.46
2018-06-29T12:36:38.945Z,26.23
2018-06-29T12:39:09.208Z,25.99
2018-06-29T12:41:38.289Z,27.85
2018-06-29T12:44:06.900Z,28.87
2018-06-29T12:46:35.148Z,28.49
2018-06-29T12:49:03.709Z,28.63
2018-06-29T12:51:32.367Z,27.85
2018-06-29T12:54:00.644Z,27.86
2018-06-29T12:56:29.943Z,28.39
2018-06-29T12:58:58.913Z,26.99
2018-06-29T13:01:27.190Z,27.81
2018-06-29T13:03:55.858Z,28.13
2018-06-29T13:06:24.826Z,27.98
2018-06-29T13:08:54.037Z,26.08
2018-06-29T13:11:22.725Z,26.46
2018-06-29T13:13:50.935Z,27.16
2018-06-29T13:16:19.153Z,27.93
2018-06-29T13:18:47.561Z,27.28
2018-06-29T13:21:16.146Z,27.00
2018-06-29T13:23:44.953Z,26.95
2018-06-29T13:26:13.697Z,27.14
2018-06-29T13:28:42.080Z,26.68
2018-06-29T13:31:10.890Z,27.43
2018-06-29T13:33:39.215Z,27.01
2018-06-29T13:36:09.079Z,25.87
2018-06-29T13:38:37.790Z,26.35
2018-06-29T13:41:06.289Z,26.04
2018-06-29T13:43:35.284Z,25.74
2018-06-29T13:46:04.218Z,26.02
2018-06-29T13:48:33.132Z,25.89
2018-06-29T13:51:01.733Z,26.42
2018-06-29T13:53:30.117Z,26.64
2018-06-29T13:56:00.878Z,26.52
2018-06-29T13:58:29.348Z,25.78
2018-06-29T14:00:57.963Z,26.17
2018-06-29T14:03:26.506Z,26.24
2018-06-29T14:05:54.781Z,26.46
2018-06-29T14:08:23.576Z,25.86
2018-06-29T14:10:52.000Z,26.16
2018-06-29T14:13:20.631Z,26.62
2018-06-29T14:15:49.095Z,26.70
2018-06-29T14:18:21.920Z,26.74
2018-06-29T14:20:51.177Z,26.69
2018-06-29T14:23:20.030Z,27.44
2018-06-29T14:25:48.506Z,26.49
2018-06-29T14:28:19.242Z,26.51
2018-06-29T14:30:47.773Z,27.19
2018-06-29T14:33:16.588Z,27.21
2018-06-29T14:35:45.891Z,27.09
2018-06-29T14:38:15.292Z,27.05
2018-06-29T14:40:44.061Z,27.99
2018-06-29T14:43:12.931Z,26.29
2018-06-29T14:45:41.282Z,26.79
2018-06-29T14:48:09.496Z,26.64
2018-06-29T14:50:38.060Z,28.13
2018-06-29T14:53:07.555Z,27.83
2018-06-29T14:55:36.093Z,27.63
2018-06-29T14:58:04.601Z,27.34
2018-06-29T15:00:33.201Z,26.90
2018-06-29T15:03:05.813Z,26.57
2018-06-29T15:05:34.122Z,26.35
2018-06-29T15:08:02.648Z,26.14
2018-06-29T15:10:31.067Z,26.09
2018-06-29T15:12:59.330Z,26.03
2018-06-29T15:15:27.887Z,25.96
2018-06-29T15:17:56.219Z,25.96
2018-06-29T15:20:26.659Z,25.86
2018-06-29T15:22:55.031Z,25.95
2018-06-29T15:25:24.645Z,25.88
2018-06-29T15:27:52.998Z,25.76
2018-06-29T15:30:22.063Z,25.74
2018-06-29T15:32:50.660Z,25.90
2018-06-29T15:35:18.894Z,26.04
2018-06-29T15:37:47.200Z,25.79
2018-06-29T15:40:15.970Z,25.80
2018-06-29T15:42:45.807Z,25.83
2018-06-29T15:45:14.381Z,25.70
2018-06-29T15:47:42.764Z,25.69
2018-06-29T15:50:11.276Z,25.98
2018-06-29T15:52:39.732Z,26.14
2018-06-29T15:55:08.045Z,26.43
2018-06-29T15:57:36.353Z,26.84
2018-06-29T16:00:07.161Z,26.76
2018-06-29T16:02:35.553Z,26.12
2018-06-29T16:05:04.146Z,26.12
2018-06-29T16:07:32.543Z,25.97
2018-06-29T16:10:00.840Z,26.05
2018-06-29T16:12:29.149Z,25.87
2018-06-29T16:14:57.514Z,25.72
2018-06-29T16:17:26.236Z,25.42
2018-06-29T16:19:54.609Z,25.52
2018-06-29T16:22:23.173Z,25.29
2018-06-29T16:24:51.717Z,25.18
2018-06-29T16:27:20.341Z,25.03
2018-06-29T16:29:48.844Z,25.12
2018-06-29T16:32:22.378Z,25.15
2018-06-29T16:34:50.996Z,25.03
2018-06-29T16:37:20.102Z,25.01
2018-06-29T16:39:48.742Z,25.06
2018-06-29T16:42:17.301Z,25.16
2018-06-29T16:44:46.135Z,25.38
2018-06-29T16:47:15.420Z,25.48
2018-06-29T16:49:44.006Z,25.66
2018-06-29T16:52:12.446Z,25.72
2018-06-29T16:54:40.734Z,25.87
2018-06-29T16:57:09.203Z,25.88
2018-06-29T16:59:37.579Z,25.99
2018-06-29T17:02:06.553Z,25.94
2018-06-29T17:04:34.644Z,26.07
2018-06-29T17:07:03.053Z,25.95
2018-06-29T17:09:31.928Z,25.98
2018-06-29T17:12:00.392Z,26.07
2018-06-29T17:14:28.658Z,26.01
2018-06-29T17:16:56.882Z,26.18
2018-06-29T17:19:25.986Z,26.40
2018-06-29T17:21:54.400Z,26.42
2018-06-29T17:24:22.709Z,26.50
2018-06-29T17:26:51.210Z,26.53
2018-06-29T17:29:19.640Z,26.52
2018-06-29T17:31:47.989Z,26.12
2018-06-29T17:34:16.448Z,26.05
2018-06-29T17:36:44.825Z,25.99
2018-06-29T17:39:13.390Z,26.17
2018-06-29T17:41:41.826Z,26.08
2018-06-29T17:44:10.341Z,25.96
2018-06-29T17:46:38.917Z,25.87
2018-06-29T17:49:07.224Z,25.93
2018-06-29T17:51:35.990Z,25.89
2018-06-29T17:54:04.710Z,25.93
2018-06-29T17:56:33.158Z,25.87
2018-06-29T17:59:03.023Z,25.76
2018-06-29T18:01:31.549Z,25.85
2018-06-29T18:03:59.927Z,25.75
2018-06-29T18:06:28.406Z,25.66
2018-06-29T18:08:56.806Z,25.79
2018-06-29T18:11:25.263Z,25.63
2018-06-29T18:13:57.694Z,25.61
2018-06-29T18:16:25.938Z,25.61
2018-06-29T18:18:54.225Z,25.72
2018-06-29T18:21:22.429Z,25.58
2018-06-29T18:23:50.840Z,25.55
2018-06-29T18:26:19.082Z,25.33
2018-06-29T18:28:47.387Z,25.33
2018-06-29T18:31:15.618Z,25.32
2018-06-29T18:33:43.948Z,25.32
2018-06-29T18:36:12.235Z,25.02
2018-06-29T18:38:40.727Z,24.93
2018-06-29T18:41:09.295Z,24.60
2018-06-29T18:43:37.860Z,24.56
2018-06-29T18:46:06.457Z,24.36
2018-06-29T18:48:34.701Z,24.29
2018-06-29T18:51:03.223Z,24.12
2018-06-29T18:53:31.445Z,23.96
2018-06-29T18:55:59.697Z,23.74
2018-06-29T18:58:28.226Z,23.66
2018-06-29T19:00:56.581Z,23.56
2018-06-29T19:03:24.834Z,23.49
2018-06-29T19:05:53.090Z,23.24
2018-06-29T19:08:21.377Z,23.22
2018-06-29T19:10:50.506Z,23.14
2018-06-29T19:13:18.819Z,23.02
2018-06-29T19:15:47.382Z,23.12
2018-06-29T19:18:16.894Z,23.00
2018-06-29T19:20:45.226Z,22.88
2018-06-29T19:23:14.263Z,22.77
2018-06-29T19:25:43.156Z,22.76
2018-06-29T19:28:11.718Z,22.75
2018-06-29T19:30:40.103Z,22.69
2018-06-29T19:33:08.520Z,22.73
2018-06-29T19:35:37.048Z,22.62
2018-06-29T19:38:05.414Z,22.65
2018-06-29T19:40:34.830Z,22.52
2018-06-29T19:43:03.118Z,22.26
2018-06-29T19:45:31.622Z,22.24
2018-06-29T19:48:00.506Z,22.20
2018-06-29T19:50:28.779Z,22.25
2018-06-29T19:52:57.192Z,22.06
2018-06-29T19:55:25.651Z,21.88
2018-06-29T19:57:53.991Z,21.88
2018-06-29T20:00:22.384Z,21.80
2018-06-29T20:02:50.691Z,21.77
2018-06-29T20:05:18.997Z,21.71
2018-06-29T20:07:47.557Z,21.71
2018-06-29T20:10:15.806Z,21.66
2018-06-29T20:12:44.159Z,21.61
2018-06-29T20:15:12.510Z,21.70
2018-06-29T20:17:41.034Z,21.57
2018-06-29T20:20:09.909Z,21.60
2018-06-29T20:22:38.404Z,21.62
2018-06-29T20:25:07.288Z,21.65
2018-06-29T20:27:36.254Z,21.62
2018-06-29T20:30:06.296Z,21.53
2018-06-29T20:32:34.913Z,21.58
2018-06-29T20:35:03.342Z,21.56
2018-06-29T20:37:31.794Z,21.58
2018-06-29T20:40:00.079Z,21.24
2018-06-29T20:42:28.361Z,21.55
2018-06-29T20:44:56.834Z,21.38
2018-06-29T20:47:25.140Z,21.17
2018-06-29T20:49:55.803Z,20.97
2018-06-29T20:52:24.868Z,20.79
2018-06-29T20:54:53.850Z,20.60
2018-06-29T20:57:22.124Z,20.36
2018-06-29T20:59:51.030Z,20.35
2018-06-29T21:02:19.310Z,20.34
2018-06-29T21:04:47.667Z,20.29
2018-06-29T21:07:15.899Z,20.18
2018-06-29T21:09:44.213Z,20.00
2018-06-29T21:12:12.572Z,19.89
2018-06-29T21:14:41.875Z,19.86
2018-06-29T21:17:10.193Z,19.90
2018-06-29T21:19:38.783Z,19.84
2018-06-29T21:22:07.151Z,19.66
2018-06-29T21:24:36.498Z,19.64
2018-06-29T21:27:05.401Z,19.62
2018-06-29T21:29:33.661Z,19.49
2018-06-29T21:32:02.319Z,19.50
2018-06-29T21:34:30.656Z,19.44
2018-06-29T21:36:59.391Z,19.41
2018-06-29T21:39:27.747Z,19.27
2018-06-29T21:41:56.411Z,19.25
2018-06-29T21:44:25.558Z,19.18
2018-06-29T21:46:54.907Z,18.92
2018-06-29T21:49:23.999Z,18.69
2018-06-29T21:51:52.517Z,18.78
2018-06-29T21:54:21.842Z,18.62
2018-06-29T21:56:50.706Z,18.58
2018-06-29T21:59:19.854Z,18.60
2018-06-29T22:01:48.398Z,18.48
2018-06-29T22:04:16.741Z,18.31
2018-06-29T22:06:45.350Z,18.32
2018-06-29T22:09:13.826Z,18.40
2018-06-29T22:11:42.623Z,18.47
2018-06-29T22:14:11.156Z,18.29
2018-06-29T22:16:40.568Z,18.18
2018-06-29T22:19:08.745Z,18.11
2018-06-29T22:21:37.238Z,18.11
2018-06-29T22:24:05.611Z,18.14
2018-06-29T22:26:33.972Z,18.09
2018-06-29T22:29:02.455Z,18.03
2018-06-29T22:31:31.236Z,18.04
2018-06-29T22:33:59.668Z,18.06
2018-06-29T22:36:27.968Z,17.92
2018-06-29T22:38:56.903Z,18.06
2018-06-29T22:41:25.144Z,17.98
2018-06-29T22:43:53.587Z,17.96
2018-06-29T22:46:22.216Z,17.89
2018-06-29T22:48:50.949Z,17.81
2018-06-29T22:51:19.282Z,17.89
2018-06-29T22:53:47.539Z,17.84
2018-06-29T22:56:16.078Z,17.85
2018-06-29T22:58:44.709Z,17.79
2018-06-29T23:01:13.347Z,17.76
2018-06-29T23:03:47.340Z,17.65
2018-06-29T23:06:16.539Z,17.79
2018-06-29T23:08:45.382Z,17.50
2018-06-29T23:11:14.548Z,17.48
2018-06-29T23:13:43.040Z,17.51
2018-06-29T23:16:11.880Z,17.65
2018-06-29T23:18:40.251Z,17.65
2018-06-29T23:21:09.053Z,17.62
2018-06-29T23:23:37.319Z,17.56
2018-06-29T23:26:05.761Z,17.63
2018-06-29T23:28:34.072Z,17.51
2018-06-29T23:31:03.049Z,17.47
2018-06-29T23:33:31.395Z,17.46
2018-06-29T23:36:01.612Z,17.29
2018-06-29T23:38:29.990Z,17.37
2018-06-29T23:40:59.586Z,17.47
2018-06-29T23:43:27.814Z,17.35
2018-06-29T23:45:56.170Z,17.36
2018-06-29T23:48:24.525Z,17.28
2018-06-29T23:50:52.845Z,17.41
2018-06-29T23:53:21.229Z,17.20
2018-06-29T23:55:49.481Z,17.19
2018-06-29T23:58:17.763Z,17.19
